MDT,Max TemperatureF,Mean TemperatureF,Min TemperatureF,Max Dew PointF,MeanDew PointF,Min DewpointF,Max Humidity, Mean Humidity, Min Humidity, Max Sea Level PressureIn, Mean Sea Level PressureIn, Min Sea Level PressureIn, Max VisibilityMiles, Mean VisibilityMiles, Min VisibilityMiles, Max Wind SpeedMPH, Mean Wind SpeedMPH, Max Gust SpeedMPH,PrecipitationIn, CloudCover, Events, WindDirDegrees
2013-7-1,98,84,69,47,38,29,40,25,9,30.04,29.87,29.79,10,10,10,22,11,30,0.00,1,,115
2013-7-2,97,85,72,44,36,28,28,19,9,29.92,29.83,29.74,10,10,10,23,9,30,0.00,0,,73
2013-7-3,98,81,63,45,37,33,37,24,11,29.86,29.78,29.68,10,10,9,38,9,47,0.00,0,,148
2013-7-4,92,80,68,48,43,39,44,30,16,29.81,29.72,29.63,10,10,10,14,5,18,0.00,1,,203
2013-7-5,96,82,68,51,44,39,47,31,14,29.71,29.65,29.55,10,10,10,31,8,37,0.00,0,,292
2013-7-6,93,81,69,50,45,41,41,30,18,29.80,29.74,29.64,10,10,8,26,7,36,0.00,1,,270
2013-7-7,94,78,62,63,50,43,87,52,17,30.12,29.85,29.72,10,10,8,31,5,37,0.05,2,Rain-Thunderstorm,211
2013-7-8,96,78,60,60,48,33,90,51,11,29.99,29.90,29.82,10,10,10,17,5,24,0.00,1,,313
2013-7-9,99,82,64,45,39,31,45,28,10,29.99,29.90,29.81,10,10,10,14,6,18,0.00,0,,160
2013-7-10,101,84,67,43,33,22,37,22,7,29.91,29.81,29.70,10,10,10,20,7,24,0.00,0,,148
2013-7-11,97,81,65,63,46,27,93,55,16,30.00,29.79,29.64,10,10,5,35,11,43,0.08,2,Rain,150
2013-7-12,91,77,63,62,57,48,87,55,23,30.03,29.84,29.74,10,10,10,31,11,36,T,4,Rain-Thunderstorm,123
2013-7-13,92,79,65,61,54,47,81,52,23,30.15,29.90,29.78,10,10,10,29,8,35,0.01,4,Rain-Thunderstorm,142
2013-7-14,93,81,68,56,50,41,61,40,18,29.97,29.86,29.77,10,10,10,26,10,32,0.00,0,,98
2013-7-15,97,83,69,61,52,41,66,41,15,30.05,29.82,29.62,10,10,5,43,12,54,0.20,2,Rain-Thunderstorm,130
2013-7-16,90,78,65,60,56,51,84,57,29,29.93,29.85,29.76,10,10,10,25,9,30,0.00,1,,137
2013-7-17,91,78,64,66,59,53,100,65,29,30.22,29.99,29.87,10,10,4,30,7,38,0.21,3,Rain-Thunderstorm,337
2013-7-18,94,79,63,63,57,50,93,60,26,30.26,30.02,29.81,10,10,8,37,12,49,0.09,3,Rain-Thunderstorm,111
2013-7-19,93,78,62,61,54,39,93,58,23,30.02,29.90,29.75,10,10,10,41,9,48,T,2,Rain-Thunderstorm,129
2013-7-20,96,81,65,55,47,37,68,41,14,29.88,29.76,29.64,10,10,10,21,8,26,0.00,0,,125
2013-7-21,98,80,61,48,40,24,52,30,7,29.79,29.72,29.65,10,10,10,15,5,17,0.00,0,,130
2013-7-22,99,85,70,47,40,26,38,23,8,29.86,29.76,29.68,10,10,10,13,7,22,0.00,0,,169
2013-7-23,100,81,62,39,33,21,36,22,7,29.88,29.80,29.72,10,10,10,23,7,26,0.00,0,,129
2013-7-24,89,80,71,48,44,39,38,30,22,29.91,29.85,29.80,10,10,10,29,10,36,0.00,1,,140
2013-7-25,95,78,61,52,46,42,48,33,18,30.07,29.89,29.81,10,10,7,35,8,49,0.00,1,,19
2013-7-26,96,81,65,50,43,37,48,31,13,30.01,29.91,29.81,10,10,10,20,5,24,0.00,0,,190
2013-7-27,90,77,63,62,51,38,61,43,24,30.04,29.86,29.75,10,10,5,28,10,35,0.14,3,Rain-Thunderstorm,114
2013-7-28,82,72,61,63,60,52,100,71,42,30.06,29.87,29.74,10,9,2,23,9,26,0.38,6,Rain-Thunderstorm,124
2013-7-29,81,70,58,63,56,44,100,66,31,30.12,29.97,29.89,10,10,6,22,8,29,0.21,4,Rain-Thunderstorm,82
2013-7-30,89,74,59,54,48,38,80,49,17,30.15,30.07,30.00,10,10,10,17,7,22,0.00,0,,112
2013-7-31,94,80,66,47,43,36,48,31,13,30.11,29.99,29.88,10,10,7,16,8,18,0.00,1,,138